sensor_id;sensor_type;location;lat;lon;timestamp;temperature;humidity
15115;DHT22;7658;51.456;7.622;2024-01-10T00:02:24;-6.20;65.70
15115;DHT22;7658;51.456;7.622;2024-01-10T00:04:50;-6.30;68.00
15115;DHT22;7658;51.456;7.622;2024-01-10T00:07:15;-6.30;73.90
15115;DHT22;7658;51.456;7.622;2024-01-10T00:09:41;-6.40;68.20
15115;DHT22;7658;51.456;7.622;2024-01-10T00:12:07;-6.40;78.50
15115;DHT22;7658;51.456;7.622;2024-01-10T00:14:33;-6.50;74.50
15115;DHT22;7658;51.456;7.622;2024-01-10T00:16:59;-6.60;75.40
15115;DHT22;7658;51.456;7.622;2024-01-10T00:19:24;-6.60;85.40
15115;DHT22;7658;51.456;7.622;2024-01-10T00:21:50;-6.70;80.80
15115;DHT22;7658;51.456;7.622;2024-01-10T00:24:16;-6.80;99.90
15115;DHT22;7658;51.456;7.622;2024-01-10T00:26:42;-6.70;94.80
15115;DHT22;7658;51.456;7.622;2024-01-10T00:29:07;-6.70;99.90
15115;DHT22;7658;51.456;7.622;2024-01-10T00:31:33;-6.60;99.60
15115;DHT22;7658;51.456;7.622;2024-01-10T00:33:59;-6.70;99.90
15115;DHT22;7658;51.456;7.622;2024-01-10T00:36:26;-6.70;99.90
15115;DHT22;7658;51.456;7.622;2024-01-10T00:38:51;-6.80;99.90
15115;DHT22;7658;51.456;7.622;2024-01-10T00:41:17;-6.90;99.90
15115;DHT22;7658;51.456;7.622;2024-01-10T00:43:43;-6.90;99.90
15115;DHT22;7658;51.456;7.622;2024-01-10T00:46:09;-6.90;99.90
15115;DHT22;7658;51.456;7.622;2024-01-10T00:48:34;-6.90;99.90
15115;DHT22;7658;51.456;7.622;2024-01-10T00:51:00;-6.80;99.90
15115;DHT22;7658;51.456;7.622;2024-01-10T00:53:26;-6.80;99.90
15115;DHT22;7658;51.456;7.622;2024-01-10T00:55:52;-6.90;99.90
15115;DHT22;7658;51.456;7.622;2024-01-10T00:58:18;-7.10;99.90
15115;DHT22;7658;51.456;7.622;2024-01-10T01:00:44;-7.10;99.90
15115;DHT22;7658;51.456;7.622;2024-01-10T01:03:09;-7.10;99.90
15115;DHT22;7658;51.456;7.622;2024-01-10T01:05:35;-7.10;99.90
15115;DHT22;7658;51.456;7.622;2024-01-10T01:08:01;-7.00;99.90
15115;DHT22;7658;51.456;7.622;2024-01-10T01:10:27;-7.00;99.90
15115;DHT22;7658;51.456;7.622;2024-01-10T01:12:52;-7.00;99.90
15115;DHT22;7658;51.456;7.622;2024-01-10T01:15:18;-6.90;99.90
15115;DHT22;7658;51.456;7.622;2024-01-10T01:17:44;-7.00;99.90
15115;DHT22;7658;51.456;7.622;2024-01-10T01:20:10;-7.00;99.90
15115;DHT22;7658;51.456;7.622;2024-01-10T01:22:35;-7.00;99.90
15115;DHT22;7658;51.456;7.622;2024-01-10T01:25:01;-7.00;99.90
15115;DHT22;7658;51.456;7.622;2024-01-10T01:27:28;-7.10;99.90
15115;DHT22;7658;51.456;7.622;2024-01-10T01:29:53;-7.20;99.90
15115;DHT22;7658;51.456;7.622;2024-01-10T01:32:19;-7.20;99.90
15115;DHT22;7658;51.456;7.622;2024-01-10T01:34:45;-7.10;99.90
15115;DHT22;7658;51.456;7.622;2024-01-10T01:37:10;-7.10;99.90
15115;DHT22;7658;51.456;7.622;2024-01-10T01:39:36;-7.20;99.90
15115;DHT22;7658;51.456;7.622;2024-01-10T01:42:02;-7.20;99.90
15115;DHT22;7658;51.456;7.622;2024-01-10T01:44:29;-7.20;99.90
15115;DHT22;7658;51.456;7.622;2024-01-10T01:46:55;-7.30;99.90
15115;DHT22;7658;51.456;7.622;2024-01-10T01:49:21;-7.30;99.90
15115;DHT22;7658;51.456;7.622;2024-01-10T01:51:47;-7.20;99.90
15115;DHT22;7658;51.456;7.622;2024-01-10T01:54:13;-7.20;99.90
15115;DHT22;7658;51.456;7.622;2024-01-10T01:56:39;-7.30;99.90
15115;DHT22;7658;51.456;7.622;2024-01-10T01:59:06;-7.20;99.90
15115;DHT22;7658;51.456;7.622;2024-01-10T02:01:32;-7.30;99.90
15115;DHT22;7658;51.456;7.622;2024-01-10T02:03:59;-7.30;99.90
15115;DHT22;7658;51.456;7.622;2024-01-10T02:06:26;-7.30;99.90
15115;DHT22;7658;51.456;7.622;2024-01-10T02:08:52;-7.30;99.90
15115;DHT22;7658;51.456;7.622;2024-01-10T02:11:18;-7.30;99.90
15115;DHT22;7658;51.456;7.622;2024-01-10T02:13:44;-7.30;99.90
15115;DHT22;7658;51.456;7.622;2024-01-10T02:16:11;-7.40;99.90
15115;DHT22;7658;51.456;7.622;2024-01-10T02:18:38;-7.30;99.90
15115;DHT22;7658;51.456;7.622;2024-01-10T02:21:03;-7.30;99.90
15115;DHT22;7658;51.456;7.622;2024-01-10T02:23:29;-7.30;99.90
15115;DHT22;7658;51.456;7.622;2024-01-10T02:25:55;-7.30;99.90
15115;DHT22;7658;51.456;7.622;2024-01-10T02:28:21;-7.30;99.90
15115;DHT22;7658;51.456;7.622;2024-01-10T02:30:50;-7.30;99.90
15115;DHT22;7658;51.456;7.622;2024-01-10T02:33:16;-7.40;99.90
15115;DHT22;7658;51.456;7.622;2024-01-10T02:35:42;-7.50;99.90
15115;DHT22;7658;51.456;7.622;2024-01-10T02:38:07;-7.50;99.90
15115;DHT22;7658;51.456;7.622;2024-01-10T02:40:33;-7.50;99.90
15115;DHT22;7658;51.456;7.622;2024-01-10T02:42:59;-7.50;99.90
15115;DHT22;7658;51.456;7.622;2024-01-10T02:45:24;-7.60;99.90
15115;DHT22;7658;51.456;7.622;2024-01-10T02:47:50;-7.70;99.90
15115;DHT22;7658;51.456;7.622;2024-01-10T02:50:16;-7.70;99.90
15115;DHT22;7658;51.456;7.622;2024-01-10T02:52:42;-7.60;99.90
15115;DHT22;7658;51.456;7.622;2024-01-10T02:55:08;-7.60;99.90
15115;DHT22;7658;51.456;7.622;2024-01-10T02:57:34;-7.60;99.90
15115;DHT22;7658;51.456;7.622;2024-01-10T02:59:59;-7.50;99.90
15115;DHT22;7658;51.456;7.622;2024-01-10T03:02:25;-7.50;99.90
15115;DHT22;7658;51.456;7.622;2024-01-10T03:04:51;-7.60;99.90
15115;DHT22;7658;51.456;7.622;2024-01-10T03:07:17;-7.50;99.90
15115;DHT22;7658;51.456;7.622;2024-01-10T03:09:42;-7.70;99.90
15115;DHT22;7658;51.456;7.622;2024-01-10T03:12:10;-7.80;99.90
15115;DHT22;7658;51.456;7.622;2024-01-10T03:14:36;-7.90;99.90
15115;DHT22;7658;51.456;7.622;2024-01-10T03:17:02;-7.90;99.90
15115;DHT22;7658;51.456;7.622;2024-01-10T03:19:28;-7.80;99.90
15115;DHT22;7658;51.456;7.622;2024-01-10T03:21:54;-7.80;99.90
15115;DHT22;7658;51.456;7.622;2024-01-10T03:24:19;-7.80;99.90
15115;DHT22;7658;51.456;7.622;2024-01-10T03:26:45;-7.80;99.90
15115;DHT22;7658;51.456;7.622;2024-01-10T03:29:11;-7.80;99.90
15115;DHT22;7658;51.456;7.622;2024-01-10T03:31:37;-7.90;99.90
15115;DHT22;7658;51.456;7.622;2024-01-10T03:34:03;-7.80;99.90
15115;DHT22;7658;51.456;7.622;2024-01-10T03:36:29;-7.80;99.90
15115;DHT22;7658;51.456;7.622;2024-01-10T03:38:55;-7.90;99.90
15115;DHT22;7658;51.456;7.622;2024-01-10T03:41:21;-7.90;99.90
15115;DHT22;7658;51.456;7.622;2024-01-10T03:43:47;-7.80;99.90
15115;DHT22;7658;51.456;7.622;2024-01-10T03:46:13;-7.80;99.90
15115;DHT22;7658;51.456;7.622;2024-01-10T03:48:39;-7.80;99.90
15115;DHT22;7658;51.456;7.622;2024-01-10T03:51:17;-7.80;99.90
15115;DHT22;7658;51.456;7.622;2024-01-10T03:53:44;-7.80;99.90
15115;DHT22;7658;51.456;7.622;2024-01-10T03:56:09;-7.80;99.90
15115;DHT22;7658;51.456;7.622;2024-01-10T03:58:35;-7.80;99.90
15115;DHT22;7658;51.456;7.622;2024-01-10T04:01:08;-7.80;99.90
15115;DHT22;7658;51.456;7.622;2024-01-10T04:03:34;-7.70;99.90
15115;DHT22;7658;51.456;7.622;2024-01-10T04:06:01;-7.80;99.90
15115;DHT22;7658;51.456;7.622;2024-01-10T04:08:27;-7.80;99.90
15115;DHT22;7658;51.456;7.622;2024-01-10T04:10:53;-7.70;99.90
15115;DHT22;7658;51.456;7.622;2024-01-10T04:13:18;-7.70;99.90
15115;DHT22;7658;51.456;7.622;2024-01-10T04:15:44;-7.80;99.90
15115;DHT22;7658;51.456;7.622;2024-01-10T04:18:10;-7.90;99.90
15115;DHT22;7658;51.456;7.622;2024-01-10T04:20:36;-8.00;99.90
15115;DHT22;7658;51.456;7.622;2024-01-10T04:23:02;-8.00;99.90
15115;DHT22;7658;51.456;7.622;2024-01-10T04:25:28;-7.90;99.90
15115;DHT22;7658;51.456;7.622;2024-01-10T04:27:54;-8.00;99.90
15115;DHT22;7658;51.456;7.622;2024-01-10T04:30:21;-7.90;99.90
15115;DHT22;7658;51.456;7.622;2024-01-10T04:32:46;-7.80;99.90
15115;DHT22;7658;51.456;7.622;2024-01-10T04:35:12;-7.80;99.90
15115;DHT22;7658;51.456;7.622;2024-01-10T04:37:38;-7.80;99.90
15115;DHT22;7658;51.456;7.622;2024-01-10T04:40:04;-7.70;99.90
15115;DHT22;7658;51.456;7.622;2024-01-10T04:42:31;-7.80;99.90
15115;DHT22;7658;51.456;7.622;2024-01-10T04:44:56;-7.90;99.90
15115;DHT22;7658;51.456;7.622;2024-01-10T04:47:22;-7.90;99.90
15115;DHT22;7658;51.456;7.622;2024-01-10T04:49:48;-7.90;99.90
15115;DHT22;7658;51.456;7.622;2024-01-10T04:52:14;-8.00;99.90
15115;DHT22;7658;51.456;7.622;2024-01-10T04:54:39;-8.10;99.90
15115;DHT22;7658;51.456;7.622;2024-01-10T04:57:05;-8.20;99.90
15115;DHT22;7658;51.456;7.622;2024-01-10T04:59:31;-8.20;99.90
15115;DHT22;7658;51.456;7.622;2024-01-10T05:01:57;-8.10;99.90
15115;DHT22;7658;51.456;7.622;2024-01-10T05:04:23;-8.00;99.90
15115;DHT22;7658;51.456;7.622;2024-01-10T05:06:48;-8.00;99.90
15115;DHT22;7658;51.456;7.622;2024-01-10T05:09:14;-8.00;99.90
15115;DHT22;7658;51.456;7.622;2024-01-10T05:11:40;-8.10;99.90
15115;DHT22;7658;51.456;7.622;2024-01-10T05:14:06;-8.10;99.90
15115;DHT22;7658;51.456;7.622;2024-01-10T05:16:31;-8.10;99.90
15115;DHT22;7658;51.456;7.622;2024-01-10T05:19:01;-8.00;99.90
15115;DHT22;7658;51.456;7.622;2024-01-10T05:21:29;-8.00;99.90
15115;DHT22;7658;51.456;7.622;2024-01-10T05:23:55;-8.10;99.90
15115;DHT22;7658;51.456;7.622;2024-01-10T05:26:21;-8.10;99.90
15115;DHT22;7658;51.456;7.622;2024-01-10T05:28:47;-8.00;99.90
15115;DHT22;7658;51.456;7.622;2024-01-10T05:31:13;-8.00;99.90
15115;DHT22;7658;51.456;7.622;2024-01-10T05:33:38;-8.00;99.90
15115;DHT22;7658;51.456;7.622;2024-01-10T05:36:04;-7.90;99.90
15115;DHT22;7658;51.456;7.622;2024-01-10T05:38:30;-7.80;99.90
15115;DHT22;7658;51.456;7.622;2024-01-10T05:40:56;-7.80;99.90
15115;DHT22;7658;51.456;7.622;2024-01-10T05:43:22;-7.80;99.90
15115;DHT22;7658;51.456;7.622;2024-01-10T05:45:47;-7.80;99.90
15115;DHT22;7658;51.456;7.622;2024-01-10T05:48:13;-7.70;99.90
15115;DHT22;7658;51.456;7.622;2024-01-10T05:50:39;-7.60;99.90
15115;DHT22;7658;51.456;7.622;2024-01-10T05:53:05;-7.60;99.90
15115;DHT22;7658;51.456;7.622;2024-01-10T05:55:31;-7.70;99.90
15115;DHT22;7658;51.456;7.622;2024-01-10T05:57:56;-7.70;99.90
15115;DHT22;7658;51.456;7.622;2024-01-10T06:00:22;-7.80;99.90
15115;DHT22;7658;51.456;7.622;2024-01-10T06:02:48;-7.80;99.90
15115;DHT22;7658;51.456;7.622;2024-01-10T06:05:14;-7.70;99.90
15115;DHT22;7658;51.456;7.622;2024-01-10T06:07:40;-7.60;99.90
15115;DHT22;7658;51.456;7.622;2024-01-10T06:10:07;-7.60;99.90
15115;DHT22;7658;51.456;7.622;2024-01-10T06:12:33;-7.60;99.90
15115;DHT22;7658;51.456;7.622;2024-01-10T06:14:58;-7.70;99.90
15115;DHT22;7658;51.456;7.622;2024-01-10T06:17:24;-7.60;99.90
15115;DHT22;7658;51.456;7.622;2024-01-10T06:19:50;-7.60;99.90
15115;DHT22;7658;51.456;7.622;2024-01-10T06:22:17;-7.60;99.90
15115;DHT22;7658;51.456;7.622;2024-01-10T06:24:43;-7.60;99.90
15115;DHT22;7658;51.456;7.622;2024-01-10T06:27:09;-7.50;99.90
15115;DHT22;7658;51.456;7.622;2024-01-10T06:29:36;-7.50;99.90
15115;DHT22;7658;51.456;7.622;2024-01-10T06:32:05;-7.60;99.90
15115;DHT22;7658;51.456;7.622;2024-01-10T06:34:32;-7.60;99.90
15115;DHT22;7658;51.456;7.622;2024-01-10T06:36:58;-7.70;99.90
15115;DHT22;7658;51.456;7.622;2024-01-10T06:39:24;-7.70;99.90
15115;DHT22;7658;51.456;7.622;2024-01-10T06:41:50;-7.80;99.90
15115;DHT22;7658;51.456;7.622;2024-01-10T06:44:16;-7.80;99.90
15115;DHT22;7658;51.456;7.622;2024-01-10T06:46:45;-7.70;99.90
15115;DHT22;7658;51.456;7.622;2024-01-10T06:49:11;-7.70;99.90
15115;DHT22;7658;51.456;7.622;2024-01-10T06:51:37;-7.70;99.90
15115;DHT22;7658;51.456;7.622;2024-01-10T06:54:04;-7.60;99.90
15115;DHT22;7658;51.456;7.622;2024-01-10T06:56:33;-7.60;99.90
15115;DHT22;7658;51.456;7.622;2024-01-10T06:58:59;-7.50;99.90
15115;DHT22;7658;51.456;7.622;2024-01-10T07:01:26;-7.50;99.90
15115;DHT22;7658;51.456;7.622;2024-01-10T07:03:52;-7.50;99.90
15115;DHT22;7658;51.456;7.622;2024-01-10T07:06:18;-7.50;99.90
15115;DHT22;7658;51.456;7.622;2024-01-10T07:08:46;-7.50;99.90
15115;DHT22;7658;51.456;7.622;2024-01-10T07:11:11;-7.50;99.90
15115;DHT22;7658;51.456;7.622;2024-01-10T07:13:37;-7.40;99.90
15115;DHT22;7658;51.456;7.622;2024-01-10T07:16:03;-7.40;99.90
15115;DHT22;7658;51.456;7.622;2024-01-10T07:18:29;-7.40;99.90
15115;DHT22;7658;51.456;7.622;2024-01-10T07:20:56;-7.40;99.90
15115;DHT22;7658;51.456;7.622;2024-01-10T07:23:21;-7.40;99.90
15115;DHT22;7658;51.456;7.622;2024-01-10T07:25:49;-7.50;99.90
15115;DHT22;7658;51.456;7.622;2024-01-10T07:28:15;-7.50;99.90
15115;DHT22;7658;51.456;7.622;2024-01-10T07:30:41;-7.50;99.90
15115;DHT22;7658;51.456;7.622;2024-01-10T07:33:07;-7.50;99.90
15115;DHT22;7658;51.456;7.622;2024-01-10T07:35:33;-7.60;99.90
15115;DHT22;7658;51.456;7.622;2024-01-10T07:37:59;-7.60;99.90
15115;DHT22;7658;51.456;7.622;2024-01-10T07:40:25;-7.50;99.90
15115;DHT22;7658;51.456;7.622;2024-01-10T07:42:51;-7.60;99.90
15115;DHT22;7658;51.456;7.622;2024-01-10T07:45:16;-7.60;99.90
15115;DHT22;7658;51.456;7.622;2024-01-10T07:47:42;-7.60;99.90
15115;DHT22;7658;51.456;7.622;2024-01-10T07:50:09;-7.50;99.90
15115;DHT22;7658;51.456;7.622;2024-01-10T07:52:35;-7.40;99.90
15115;DHT22;7658;51.456;7.622;2024-01-10T07:55:02;-7.30;99.90
15115;DHT22;7658;51.456;7.622;2024-01-10T07:57:30;-7.40;99.90
15115;DHT22;7658;51.456;7.622;2024-01-10T07:59:56;-7.40;99.90
15115;DHT22;7658;51.456;7.622;2024-01-10T08:02:23;-7.40;99.90
15115;DHT22;7658;51.456;7.622;2024-01-10T08:04:49;-7.40;99.90
15115;DHT22;7658;51.456;7.622;2024-01-10T08:07:15;-7.30;99.90
15115;DHT22;7658;51.456;7.622;2024-01-10T08:09:41;-7.30;99.90
15115;DHT22;7658;51.456;7.622;2024-01-10T08:12:06;-7.30;99.90
15115;DHT22;7658;51.456;7.622;2024-01-10T08:14:32;-7.20;99.90
15115;DHT22;7658;51.456;7.622;2024-01-10T08:16:58;-7.20;99.90
15115;DHT22;7658;51.456;7.622;2024-01-10T08:19:26;-7.10;99.90
15115;DHT22;7658;51.456;7.622;2024-01-10T08:21:53;-7.10;99.90
15115;DHT22;7658;51.456;7.622;2024-01-10T08:24:19;-7.10;99.90
15115;DHT22;7658;51.456;7.622;2024-01-10T08:26:46;-7.10;99.90
15115;DHT22;7658;51.456;7.622;2024-01-10T08:29:15;-7.00;99.90
15115;DHT22;7658;51.456;7.622;2024-01-10T08:31:40;-6.90;99.90
15115;DHT22;7658;51.456;7.622;2024-01-10T08:34:06;-6.90;99.90
15115;DHT22;7658;51.456;7.622;2024-01-10T08:36:32;-6.80;99.90
15115;DHT22;7658;51.456;7.622;2024-01-10T08:38:57;-6.70;99.90
15115;DHT22;7658;51.456;7.622;2024-01-10T08:41:23;-6.60;99.90
15115;DHT22;7658;51.456;7.622;2024-01-10T08:43:49;-6.50;99.90
15115;DHT22;7658;51.456;7.622;2024-01-10T08:46:15;-6.40;99.90
15115;DHT22;7658;51.456;7.622;2024-01-10T08:48:41;-6.30;99.90
15115;DHT22;7658;51.456;7.622;2024-01-10T08:51:06;-6.30;99.90
15115;DHT22;7658;51.456;7.622;2024-01-10T08:53:35;-6.20;99.90
15115;DHT22;7658;51.456;7.622;2024-01-10T08:56:00;-6.10;99.90
15115;DHT22;7658;51.456;7.622;2024-01-10T08:58:26;-6.10;99.90
15115;DHT22;7658;51.456;7.622;2024-01-10T09:00:52;-6.00;99.90
15115;DHT22;7658;51.456;7.622;2024-01-10T09:03:18;-5.90;99.90
15115;DHT22;7658;51.456;7.622;2024-01-10T09:05:43;-5.90;99.90
15115;DHT22;7658;51.456;7.622;2024-01-10T09:08:09;-5.80;99.90
15115;DHT22;7658;51.456;7.622;2024-01-10T09:10:35;-5.70;99.90
15115;DHT22;7658;51.456;7.622;2024-01-10T09:13:00;-5.70;99.90
15115;DHT22;7658;51.456;7.622;2024-01-10T09:15:26;-5.60;99.90
15115;DHT22;7658;51.456;7.622;2024-01-10T09:17:52;-5.50;99.90
15115;DHT22;7658;51.456;7.622;2024-01-10T09:20:18;-5.50;99.90
15115;DHT22;7658;51.456;7.622;2024-01-10T09:22:44;-5.40;99.90
15115;DHT22;7658;51.456;7.622;2024-01-10T09:25:10;-5.40;99.90
15115;DHT22;7658;51.456;7.622;2024-01-10T09:27:39;-5.30;99.90
15115;DHT22;7658;51.456;7.622;2024-01-10T09:30:07;-5.30;99.90
15115;DHT22;7658;51.456;7.622;2024-01-10T09:32:34;-5.30;99.90
15115;DHT22;7658;51.456;7.622;2024-01-10T09:35:00;-5.20;99.90
15115;DHT22;7658;51.456;7.622;2024-01-10T09:37:26;-5.20;99.90
15115;DHT22;7658;51.456;7.622;2024-01-10T09:39:52;-5.10;99.90
15115;DHT22;7658;51.456;7.622;2024-01-10T09:42:19;-5.10;99.90
15115;DHT22;7658;51.456;7.622;2024-01-10T09:44:47;-5.00;99.90
15115;DHT22;7658;51.456;7.622;2024-01-10T09:47:15;-5.00;99.90
15115;DHT22;7658;51.456;7.622;2024-01-10T09:49:42;-4.90;99.90
15115;DHT22;7658;51.456;7.622;2024-01-10T09:52:10;-4.70;99.90
15115;DHT22;7658;51.456;7.622;2024-01-10T09:54:42;-4.60;99.90
15115;DHT22;7658;51.456;7.622;2024-01-10T09:57:08;-4.40;99.90
15115;DHT22;7658;51.456;7.622;2024-01-10T09:59:35;-4.30;99.90
15115;DHT22;7658;51.456;7.622;2024-01-10T10:02:02;-4.10;93.70
15115;DHT22;7658;51.456;7.622;2024-01-10T10:04:30;-4.00;81.80
15115;DHT22;7658;51.456;7.622;2024-01-10T10:07:00;-3.90;55.60
15115;DHT22;7658;51.456;7.622;2024-01-10T10:09:29;-3.80;56.90
15115;DHT22;7658;51.456;7.622;2024-01-10T10:11:57;-3.70;77.90
15115;DHT22;7658;51.456;7.622;2024-01-10T10:14:24;-3.50;54.40
15115;DHT22;7658;51.456;7.622;2024-01-10T10:16:51;-3.40;34.40
15115;DHT22;7658;51.456;7.622;2024-01-10T10:19:24;-3.40;56.40
15115;DHT22;7658;51.456;7.622;2024-01-10T10:21:50;-3.30;40.40
15115;DHT22;7658;51.456;7.622;2024-01-10T10:24:16;-3.20;9.20
15115;DHT22;7658;51.456;7.622;2024-01-10T10:26:42;-3.00;11.90
15115;DHT22;7658;51.456;7.622;2024-01-10T10:29:10;-2.90;4.80
15115;DHT22;7658;51.456;7.622;2024-01-10T10:31:35;-2.90;1.00
15115;DHT22;7658;51.456;7.622;2024-01-10T10:34:01;-2.80;6.10
15115;DHT22;7658;51.456;7.622;2024-01-10T10:36:30;-2.70;6.00
15115;DHT22;7658;51.456;7.622;2024-01-10T10:38:59;-2.60;3.40
15115;DHT22;7658;51.456;7.622;2024-01-10T10:41:29;-2.50;13.50
15115;DHT22;7658;51.456;7.622;2024-01-10T10:43:56;-2.40;1.00
15115;DHT22;7658;51.456;7.622;2024-01-10T10:46:23;-2.30;1.00
15115;DHT22;7658;51.456;7.622;2024-01-10T10:48:52;-2.20;1.00
15115;DHT22;7658;51.456;7.622;2024-01-10T10:51:27;-2.10;1.00
15115;DHT22;7658;51.456;7.622;2024-01-10T10:53:55;-2.00;1.00
15115;DHT22;7658;51.456;7.622;2024-01-10T10:56:22;-2.10;1.00
15115;DHT22;7658;51.456;7.622;2024-01-10T10:58:49;-2.10;1.00
15115;DHT22;7658;51.456;7.622;2024-01-10T11:01:16;-2.00;1.00
15115;DHT22;7658;51.456;7.622;2024-01-10T11:03:42;-1.80;1.00
15115;DHT22;7658;51.456;7.622;2024-01-10T11:06:10;-1.60;1.00
15115;DHT22;7658;51.456;7.622;2024-01-10T11:08:42;-1.30;1.00
15115;DHT22;7658;51.456;7.622;2024-01-10T11:12:14;-1.00;1.00
15115;DHT22;7658;51.456;7.622;2024-01-10T11:14:52;-0.80;1.00
15115;DHT22;7658;51.456;7.622;2024-01-10T11:18:38;-0.70;1.00
15115;DHT22;7658;51.456;7.622;2024-01-10T11:25:58;-0.10;1.00
15115;DHT22;7658;51.456;7.622;2024-01-10T11:28:25;0.10;1.00
15115;DHT22;7658;51.456;7.622;2024-01-10T11:30:53;0.30;1.00
15115;DHT22;7658;51.456;7.622;2024-01-10T11:33:31;0.30;1.00
15115;DHT22;7658;51.456;7.622;2024-01-10T11:41:26;0.70;1.00
15115;DHT22;7658;51.456;7.622;2024-01-10T11:49:10;0.90;1.00
15115;DHT22;7658;51.456;7.622;2024-01-10T11:51:37;1.10;1.00
15115;DHT22;7658;51.456;7.622;2024-01-10T11:54:03;1.00;1.00
15115;DHT22;7658;51.456;7.622;2024-01-10T11:56:40;1.20;1.00
15115;DHT22;7658;51.456;7.622;2024-01-10T11:59:08;1.40;99.90
15115;DHT22;7658;51.456;7.622;2024-01-10T12:01:36;1.50;1.00
15115;DHT22;7658;51.456;7.622;2024-01-10T12:04:03;1.60;99.90
15115;DHT22;7658;51.456;7.622;2024-01-10T12:06:34;1.70;99.90
15115;DHT22;7658;51.456;7.622;2024-01-10T12:09:00;2.00;99.90
15115;DHT22;7658;51.456;7.622;2024-01-10T12:11:30;2.20;99.90
15115;DHT22;7658;51.456;7.622;2024-01-10T12:13:56;2.10;1.00
15115;DHT22;7658;51.456;7.622;2024-01-10T12:16:23;2.30;1.00
15115;DHT22;7658;51.456;7.622;2024-01-10T12:18:49;2.40;99.90
15115;DHT22;7658;51.456;7.622;2024-01-10T12:21:16;2.40;99.90
15115;DHT22;7658;51.456;7.622;2024-01-10T12:23:43;2.40;99.90
15115;DHT22;7658;51.456;7.622;2024-01-10T12:26:10;2.50;99.90
15115;DHT22;7658;51.456;7.622;2024-01-10T12:28:39;2.60;1.00
15115;DHT22;7658;51.456;7.622;2024-01-10T12:31:06;2.70;54.10
15115;DHT22;7658;51.456;7.622;2024-01-10T12:33:38;2.60;41.20
15115;DHT22;7658;51.456;7.622;2024-01-10T12:36:12;2.80;99.90
15115;DHT22;7658;51.456;7.622;2024-01-10T12:38:40;2.60;99.90
15115;DHT22;7658;51.456;7.622;2024-01-10T12:41:06;2.70;1.00
15115;DHT22;7658;51.456;7.622;2024-01-10T12:43:35;2.80;57.60
15115;DHT22;7658;51.456;7.622;2024-01-10T12:46:11;2.70;99.90
15115;DHT22;7658;51.456;7.622;2024-01-10T12:48:38;2.80;1.00
15115;DHT22;7658;51.456;7.622;2024-01-10T12:51:07;2.80;1.00
15115;DHT22;7658;51.456;7.622;2024-01-10T12:53:41;2.60;99.90
15115;DHT22;7658;51.456;7.622;2024-01-10T12:56:08;2.60;99.90
15115;DHT22;7658;51.456;7.622;2024-01-10T12:58:39;2.70;99.90
15115;DHT22;7658;51.456;7.622;2024-01-10T13:01:05;2.80;1.00
15115;DHT22;7658;51.456;7.622;2024-01-10T13:03:31;2.90;99.90
15115;DHT22;7658;51.456;7.622;2024-01-10T13:05:57;2.90;1.00
15115;DHT22;7658;51.456;7.622;2024-01-10T13:08:24;2.90;99.90
15115;DHT22;7658;51.456;7.622;2024-01-10T13:10:50;2.80;1.00
15115;DHT22;7658;51.456;7.622;2024-01-10T13:13:15;2.80;99.90
15115;DHT22;7658;51.456;7.622;2024-01-10T13:15:44;2.70;1.00
15115;DHT22;7658;51.456;7.622;2024-01-10T13:18:11;2.60;1.00
15115;DHT22;7658;51.456;7.622;2024-01-10T13:20:37;2.50;1.00
15115;DHT22;7658;51.456;7.622;2024-01-10T13:23:04;2.40;1.00
15115;DHT22;7658;51.456;7.622;2024-01-10T13:25:29;2.10;1.00
15115;DHT22;7658;51.456;7.622;2024-01-10T13:27:55;2.00;99.90
15115;DHT22;7658;51.456;7.622;2024-01-10T13:30:21;1.70;99.90
15115;DHT22;7658;51.456;7.622;2024-01-10T13:32:47;1.50;99.90
15115;DHT22;7658;51.456;7.622;2024-01-10T13:35:13;1.30;1.00
15115;DHT22;7658;51.456;7.622;2024-01-10T13:37:40;1.20;1.00
15115;DHT22;7658;51.456;7.622;2024-01-10T13:40:12;1.10;1.00
15115;DHT22;7658;51.456;7.622;2024-01-10T13:42:44;1.20;1.00
15115;DHT22;7658;51.456;7.622;2024-01-10T13:45:10;1.00;99.90
15115;DHT22;7658;51.456;7.622;2024-01-10T13:47:37;0.80;98.60
15115;DHT22;7658;51.456;7.622;2024-01-10T13:50:04;0.60;99.90
15115;DHT22;7658;51.456;7.622;2024-01-10T13:52:35;0.40;99.90
15115;DHT22;7658;51.456;7.622;2024-01-10T13:55:01;0.20;99.90
15115;DHT22;7658;51.456;7.622;2024-01-10T13:57:27;0.10;1.00
15115;DHT22;7658;51.456;7.622;2024-01-10T13:59:53;-0.10;1.00
15115;DHT22;7658;51.456;7.622;2024-01-10T14:02:24;-0.20;1.00
15115;DHT22;7658;51.456;7.622;2024-01-10T14:04:50;-0.30;1.00
15115;DHT22;7658;51.456;7.622;2024-01-10T14:07:16;-0.30;1.00
15115;DHT22;7658;51.456;7.622;2024-01-10T14:09:42;-0.40;1.00
15115;DHT22;7658;51.456;7.622;2024-01-10T14:12:08;-0.50;1.00
15115;DHT22;7658;51.456;7.622;2024-01-10T14:14:34;-0.50;1.00
15115;DHT22;7658;51.456;7.622;2024-01-10T14:17:00;-0.60;1.00
15115;DHT22;7658;51.456;7.622;2024-01-10T14:19:26;-0.60;1.00
15115;DHT22;7658;51.456;7.622;2024-01-10T14:21:52;-0.70;1.00
15115;DHT22;7658;51.456;7.622;2024-01-10T14:24:18;-0.70;1.00
15115;DHT22;7658;51.456;7.622;2024-01-10T14:26:44;-0.70;1.00
15115;DHT22;7658;51.456;7.622;2024-01-10T14:29:10;-0.80;1.00
15115;DHT22;7658;51.456;7.622;2024-01-10T14:31:36;-0.80;1.00
15115;DHT22;7658;51.456;7.622;2024-01-10T14:34:02;-0.80;1.00
15115;DHT22;7658;51.456;7.622;2024-01-10T14:36:28;-0.80;1.00
15115;DHT22;7658;51.456;7.622;2024-01-10T14:38:54;-0.70;1.00
15115;DHT22;7658;51.456;7.622;2024-01-10T14:41:23;-0.70;1.00
15115;DHT22;7658;51.456;7.622;2024-01-10T14:43:49;-0.70;1.00
15115;DHT22;7658;51.456;7.622;2024-01-10T14:46:15;-0.80;1.00
15115;DHT22;7658;51.456;7.622;2024-01-10T14:48:41;-0.80;1.00
15115;DHT22;7658;51.456;7.622;2024-01-10T14:51:06;-0.80;1.00
15115;DHT22;7658;51.456;7.622;2024-01-10T14:53:33;-0.80;1.00
15115;DHT22;7658;51.456;7.622;2024-01-10T14:56:02;-0.80;1.00
15115;DHT22;7658;51.456;7.622;2024-01-10T14:58:28;-0.80;1.00
15115;DHT22;7658;51.456;7.622;2024-01-10T15:00:53;-0.80;1.00
15115;DHT22;7658;51.456;7.622;2024-01-10T15:03:19;-0.80;1.00
15115;DHT22;7658;51.456;7.622;2024-01-10T15:05:45;-0.90;1.00
15115;DHT22;7658;51.456;7.622;2024-01-10T15:08:11;-0.90;1.00
15115;DHT22;7658;51.456;7.622;2024-01-10T15:10:37;-1.00;1.00
15115;DHT22;7658;51.456;7.622;2024-01-10T15:13:09;-1.00;1.00
15115;DHT22;7658;51.456;7.622;2024-01-10T15:15:37;-1.00;1.00
15115;DHT22;7658;51.456;7.622;2024-01-10T15:18:04;-1.10;1.00
15115;DHT22;7658;51.456;7.622;2024-01-10T15:20:30;-1.10;1.00
15115;DHT22;7658;51.456;7.622;2024-01-10T15:22:56;-1.20;1.00
15115;DHT22;7658;51.456;7.622;2024-01-10T15:25:23;-1.20;1.00
15115;DHT22;7658;51.456;7.622;2024-01-10T15:27:50;-1.20;1.00
15115;DHT22;7658;51.456;7.622;2024-01-10T15:30:16;-1.30;1.00
15115;DHT22;7658;51.456;7.622;2024-01-10T15:32:43;-1.30;1.00
15115;DHT22;7658;51.456;7.622;2024-01-10T15:35:09;-1.30;1.00
15115;DHT22;7658;51.456;7.622;2024-01-10T15:37:35;-1.40;1.00
15115;DHT22;7658;51.456;7.622;2024-01-10T15:40:01;-1.40;1.00
15115;DHT22;7658;51.456;7.622;2024-01-10T15:42:27;-1.40;1.00
15115;DHT22;7658;51.456;7.622;2024-01-10T15:44:53;-1.50;1.00
15115;DHT22;7658;51.456;7.622;2024-01-10T15:47:19;-1.50;1.00
15115;DHT22;7658;51.456;7.622;2024-01-10T15:49:44;-1.50;1.00
15115;DHT22;7658;51.456;7.622;2024-01-10T15:52:12;-1.50;1.00
15115;DHT22;7658;51.456;7.622;2024-01-10T15:54:38;-1.50;1.00
15115;DHT22;7658;51.456;7.622;2024-01-10T15:57:06;-1.50;1.00
15115;DHT22;7658;51.456;7.622;2024-01-10T15:59:32;-1.50;1.00
15115;DHT22;7658;51.456;7.622;2024-01-10T16:01:58;-1.50;1.00
15115;DHT22;7658;51.456;7.622;2024-01-10T16:04:24;-1.50;1.00
15115;DHT22;7658;51.456;7.622;2024-01-10T16:06:49;-1.60;1.00